Capitol Logistics 217


KSMF
Sacramento International Airport
Sacramento, California, US
KRFD
Chicago/Rockford International Airport
Rockford, Illinois, US

Activity Log

Date Flight Route Aircraft Duration
02/24/2020 CPX217 SCTWN2 RALEY INSLO DTA DBL J60 IOW PLL B763 3h 29m
11/13/2019 CPX417 N0442F390 RVRCT2 MACUS Q122 ONL J94 FOD J82 DBQ V100 RFD B738 3h 27m
03/18/2019 CPX417 RVRCT2 MACUS Q122 FOD J82 DBQ RFD B752 3h 14m
02/03/2019 CPX217 SCTWN2 RALEY INSLO DTA DBL J60 IOW PLL B763 3h 27m

Route Details

Aircraft Information
Primary: Boeing 767-300BDSF
Backup: Not Available
Route Data
Distance: 1511nm
Sched. Duration: 3h 25m
Avg. Duration: 3h 24m (-0m)
Times Flown: 4
Recm'd Route: SCTWN2 RALEY INSLO DTA DBL J60 IOW PLL
Planned Altitude: 39,000ft
Origin Wx: KSMF 222053Z 34015G21KT 8SM CLR 25/M02 A2985 RMK AO2 SLP106 T02501017 58014
Dest. Wx: KRFD 222102Z 08004KT 5SM HZ SCT007 SCT012 18/16 A2989 RMK AO2 T01830156
Notes:

Financial History
Total Freight: 207,993lbs
Average Load: 51,998lbs/flt
Fuel Used: 115,911lbs
Avg. Fuel Used: 28,978lbs/flt
Fuel Expense: $126,343
Avg. Fuel Expense: $31,586
Avg. Fuel Cost: $1.09/lbs
Total Gross Income: $278,514
Pilot Pay: $846
Total Expenses: $30,287
Total Revenue: $118,520
Average Revenue: $69,628.45